sensor_id;sensor_type;location;lat;lon;timestamp;P1;durP1;ratioP1;P2;durP2;ratioP2
7383;SDS011;3733;47.994;8.820;2022-12-20T00:00:00;62.80;;;30.27;;
7383;SDS011;3733;47.994;8.820;2022-12-20T00:02:26;64.23;;;29.33;;
7383;SDS011;3733;47.994;8.820;2022-12-20T00:04:51;66.63;;;29.80;;
7383;SDS011;3733;47.994;8.820;2022-12-20T00:07:17;56.17;;;27.13;;
7383;SDS011;3733;47.994;8.820;2022-12-20T00:09:42;55.63;;;27.40;;
7383;SDS011;3733;47.994;8.820;2022-12-20T00:12:08;63.27;;;31.20;;
7383;SDS011;3733;47.994;8.820;2022-12-20T00:14:34;68.57;;;31.27;;
7383;SDS011;3733;47.994;8.820;2022-12-20T00:16:59;62.90;;;30.70;;
7383;SDS011;3733;47.994;8.820;2022-12-20T00:19:25;64.13;;;32.30;;
7383;SDS011;3733;47.994;8.820;2022-12-20T00:21:50;67.07;;;32.50;;
7383;SDS011;3733;47.994;8.820;2022-12-20T00:24:16;64.50;;;30.00;;
7383;SDS011;3733;47.994;8.820;2022-12-20T00:26:42;64.80;;;31.30;;
7383;SDS011;3733;47.994;8.820;2022-12-20T00:29:07;72.57;;;31.23;;
7383;SDS011;3733;47.994;8.820;2022-12-20T00:31:33;71.33;;;31.20;;
7383;SDS011;3733;47.994;8.820;2022-12-20T00:33:59;60.33;;;29.10;;
7383;SDS011;3733;47.994;8.820;2022-12-20T00:36:26;55.53;;;28.50;;
7383;SDS011;3733;47.994;8.820;2022-12-20T00:38:54;67.20;;;28.90;;
7383;SDS011;3733;47.994;8.820;2022-12-20T00:41:21;68.03;;;29.97;;
7383;SDS011;3733;47.994;8.820;2022-12-20T00:43:48;61.20;;;28.40;;
7383;SDS011;3733;47.994;8.820;2022-12-20T00:46:15;61.60;;;27.70;;
7383;SDS011;3733;47.994;8.820;2022-12-20T00:48:42;66.07;;;28.97;;
7383;SDS011;3733;47.994;8.820;2022-12-20T00:51:08;57.30;;;29.70;;
7383;SDS011;3733;47.994;8.820;2022-12-20T00:53:39;67.17;;;30.90;;
7383;SDS011;3733;47.994;8.820;2022-12-20T00:56:05;61.27;;;31.00;;
7383;SDS011;3733;47.994;8.820;2022-12-20T00:58:33;62.20;;;28.60;;
7383;SDS011;3733;47.994;8.820;2022-12-20T01:01:00;69.30;;;30.40;;
7383;SDS011;3733;47.994;8.820;2022-12-20T01:03:26;57.47;;;29.10;;
7383;SDS011;3733;47.994;8.820;2022-12-20T01:05:56;60.13;;;26.20;;
7383;SDS011;3733;47.994;8.820;2022-12-20T01:08:24;59.10;;;27.87;;
7383;SDS011;3733;47.994;8.820;2022-12-20T01:10:58;52.13;;;25.10;;
7383;SDS011;3733;47.994;8.820;2022-12-20T01:13:25;50.07;;;25.17;;
7383;SDS011;3733;47.994;8.820;2022-12-20T01:15:51;68.30;;;31.40;;
7383;SDS011;3733;47.994;8.820;2022-12-20T01:18:17;72.47;;;32.57;;
7383;SDS011;3733;47.994;8.820;2022-12-20T01:20:42;67.60;;;33.03;;
7383;SDS011;3733;47.994;8.820;2022-12-20T01:23:08;69.37;;;32.00;;
7383;SDS011;3733;47.994;8.820;2022-12-20T01:25:33;64.40;;;32.13;;
7383;SDS011;3733;47.994;8.820;2022-12-20T01:27:59;62.80;;;29.90;;
7383;SDS011;3733;47.994;8.820;2022-12-20T01:30:24;61.70;;;29.63;;
7383;SDS011;3733;47.994;8.820;2022-12-20T01:32:50;58.90;;;30.00;;
7383;SDS011;3733;47.994;8.820;2022-12-20T01:35:16;59.07;;;28.90;;
7383;SDS011;3733;47.994;8.820;2022-12-20T01:37:41;68.00;;;31.10;;
7383;SDS011;3733;47.994;8.820;2022-12-20T01:40:07;57.10;;;28.00;;
7383;SDS011;3733;47.994;8.820;2022-12-20T01:42:34;64.43;;;30.17;;
7383;SDS011;3733;47.994;8.820;2022-12-20T01:45:00;60.47;;;30.40;;
7383;SDS011;3733;47.994;8.820;2022-12-20T01:47:28;59.53;;;29.10;;
7383;SDS011;3733;47.994;8.820;2022-12-20T01:49:57;54.97;;;29.30;;
7383;SDS011;3733;47.994;8.820;2022-12-20T01:52:33;64.20;;;30.67;;
7383;SDS011;3733;47.994;8.820;2022-12-20T01:57:37;68.07;;;29.77;;
7383;SDS011;3733;47.994;8.820;2022-12-20T02:00:10;55.03;;;27.53;;
7383;SDS011;3733;47.994;8.820;2022-12-20T02:02:36;53.47;;;25.57;;
7383;SDS011;3733;47.994;8.820;2022-12-20T02:05:02;64.80;;;29.80;;
7383;SDS011;3733;47.994;8.820;2022-12-20T02:07:29;71.73;;;33.20;;
7383;SDS011;3733;47.994;8.820;2022-12-20T02:09:57;73.07;;;34.27;;
7383;SDS011;3733;47.994;8.820;2022-12-20T02:12:25;66.27;;;29.90;;
7383;SDS011;3733;47.994;8.820;2022-12-20T02:30:50;63.63;;;32.13;;
7383;SDS011;3733;47.994;8.820;2022-12-20T02:33:19;77.00;;;34.33;;
7383;SDS011;3733;47.994;8.820;2022-12-20T02:35:47;61.27;;;31.10;;
7383;SDS011;3733;47.994;8.820;2022-12-20T02:38:30;62.67;;;31.90;;
7383;SDS011;3733;47.994;8.820;2022-12-20T02:43:56;65.83;;;31.70;;
7383;SDS011;3733;47.994;8.820;2022-12-20T02:46:46;68.57;;;31.37;;
7383;SDS011;3733;47.994;8.820;2022-12-20T02:49:15;67.33;;;32.10;;
7383;SDS011;3733;47.994;8.820;2022-12-20T02:51:44;52.70;;;28.90;;
7383;SDS011;3733;47.994;8.820;2022-12-20T02:54:13;59.23;;;30.50;;
7383;SDS011;3733;47.994;8.820;2022-12-20T02:59:16;62.93;;;31.00;;
7383;SDS011;3733;47.994;8.820;2022-12-20T03:01:47;64.73;;;31.10;;
7383;SDS011;3733;47.994;8.820;2022-12-20T03:04:16;63.10;;;31.43;;
7383;SDS011;3733;47.994;8.820;2022-12-20T03:06:56;60.30;;;30.93;;
7383;SDS011;3733;47.994;8.820;2022-12-20T03:09:39;60.40;;;30.50;;
7383;SDS011;3733;47.994;8.820;2022-12-20T03:12:07;56.13;;;27.00;;
7383;SDS011;3733;47.994;8.820;2022-12-20T03:14:33;59.57;;;28.37;;
7383;SDS011;3733;47.994;8.820;2022-12-20T03:16:59;63.90;;;28.13;;
7383;SDS011;3733;47.994;8.820;2022-12-20T03:19:26;68.77;;;31.20;;
7383;SDS011;3733;47.994;8.820;2022-12-20T03:21:51;56.70;;;27.80;;
7383;SDS011;3733;47.994;8.820;2022-12-20T03:24:17;61.13;;;28.60;;
7383;SDS011;3733;47.994;8.820;2022-12-20T03:26:43;54.83;;;26.47;;
7383;SDS011;3733;47.994;8.820;2022-12-20T03:29:09;50.20;;;25.07;;
7383;SDS011;3733;47.994;8.820;2022-12-20T03:31:35;53.10;;;26.50;;
7383;SDS011;3733;47.994;8.820;2022-12-20T03:34:01;61.40;;;26.33;;
7383;SDS011;3733;47.994;8.820;2022-12-20T03:36:27;59.43;;;27.03;;
7383;SDS011;3733;47.994;8.820;2022-12-20T03:38:53;58.57;;;26.60;;
7383;SDS011;3733;47.994;8.820;2022-12-20T03:41:19;53.50;;;26.33;;
7383;SDS011;3733;47.994;8.820;2022-12-20T03:43:46;54.77;;;25.87;;
7383;SDS011;3733;47.994;8.820;2022-12-20T03:46:12;47.27;;;24.37;;
7383;SDS011;3733;47.994;8.820;2022-12-20T03:48:38;47.20;;;24.30;;
7383;SDS011;3733;47.994;8.820;2022-12-20T03:51:03;46.77;;;23.43;;
7383;SDS011;3733;47.994;8.820;2022-12-20T03:53:29;41.23;;;22.60;;
7383;SDS011;3733;47.994;8.820;2022-12-20T03:55:55;44.07;;;23.50;;
7383;SDS011;3733;47.994;8.820;2022-12-20T03:58:21;49.03;;;24.97;;
7383;SDS011;3733;47.994;8.820;2022-12-20T04:00:47;52.67;;;26.10;;
7383;SDS011;3733;47.994;8.820;2022-12-20T04:03:12;61.07;;;27.97;;
7383;SDS011;3733;47.994;8.820;2022-12-20T04:05:38;60.07;;;25.23;;
7383;SDS011;3733;47.994;8.820;2022-12-20T04:08:04;54.17;;;23.63;;
7383;SDS011;3733;47.994;8.820;2022-12-20T04:10:29;48.57;;;23.70;;
7383;SDS011;3733;47.994;8.820;2022-12-20T04:12:55;51.50;;;24.93;;
7383;SDS011;3733;47.994;8.820;2022-12-20T04:15:21;52.43;;;25.27;;
7383;SDS011;3733;47.994;8.820;2022-12-20T04:17:46;50.40;;;25.13;;
7383;SDS011;3733;47.994;8.820;2022-12-20T04:20:15;52.53;;;25.17;;
7383;SDS011;3733;47.994;8.820;2022-12-20T04:22:47;50.57;;;26.57;;
7383;SDS011;3733;47.994;8.820;2022-12-20T04:25:15;46.03;;;24.60;;
7383;SDS011;3733;47.994;8.820;2022-12-20T04:27:43;49.17;;;25.13;;
7383;SDS011;3733;47.994;8.820;2022-12-20T04:30:09;52.40;;;25.27;;
7383;SDS011;3733;47.994;8.820;2022-12-20T04:32:35;48.97;;;25.13;;
7383;SDS011;3733;47.994;8.820;2022-12-20T04:35:02;48.87;;;24.20;;
7383;SDS011;3733;47.994;8.820;2022-12-20T04:37:28;42.43;;;21.90;;
7383;SDS011;3733;47.994;8.820;2022-12-20T04:39:54;46.23;;;23.27;;
7383;SDS011;3733;47.994;8.820;2022-12-20T04:42:20;42.03;;;20.23;;
7383;SDS011;3733;47.994;8.820;2022-12-20T04:44:46;38.93;;;18.60;;
7383;SDS011;3733;47.994;8.820;2022-12-20T04:47:12;39.00;;;19.47;;
7383;SDS011;3733;47.994;8.820;2022-12-20T04:49:38;41.20;;;20.00;;
7383;SDS011;3733;47.994;8.820;2022-12-20T04:52:03;47.80;;;22.90;;
7383;SDS011;3733;47.994;8.820;2022-12-20T04:54:47;42.20;;;21.30;;
7383;SDS011;3733;47.994;8.820;2022-12-20T04:57:13;46.20;;;23.07;;
7383;SDS011;3733;47.994;8.820;2022-12-20T04:59:39;50.40;;;23.27;;
7383;SDS011;3733;47.994;8.820;2022-12-20T05:02:04;45.83;;;23.13;;
7383;SDS011;3733;47.994;8.820;2022-12-20T05:04:30;41.67;;;22.00;;
7383;SDS011;3733;47.994;8.820;2022-12-20T05:06:56;49.17;;;22.00;;
7383;SDS011;3733;47.994;8.820;2022-12-20T05:09:21;41.53;;;19.93;;
7383;SDS011;3733;47.994;8.820;2022-12-20T05:11:48;38.27;;;19.00;;
7383;SDS011;3733;47.994;8.820;2022-12-20T05:14:13;34.30;;;17.70;;
7383;SDS011;3733;47.994;8.820;2022-12-20T05:16:39;34.97;;;18.07;;
7383;SDS011;3733;47.994;8.820;2022-12-20T05:19:05;38.03;;;19.37;;
7383;SDS011;3733;47.994;8.820;2022-12-20T05:21:31;39.17;;;19.60;;
7383;SDS011;3733;47.994;8.820;2022-12-20T05:24:15;39.27;;;18.63;;
7383;SDS011;3733;47.994;8.820;2022-12-20T05:27:00;44.87;;;20.40;;
7383;SDS011;3733;47.994;8.820;2022-12-20T05:29:26;39.30;;;20.27;;
7383;SDS011;3733;47.994;8.820;2022-12-20T05:31:51;36.90;;;20.60;;
7383;SDS011;3733;47.994;8.820;2022-12-20T05:34:17;41.77;;;19.80;;
7383;SDS011;3733;47.994;8.820;2022-12-20T05:36:43;32.43;;;18.60;;
7383;SDS011;3733;47.994;8.820;2022-12-20T05:39:09;42.10;;;19.90;;
7383;SDS011;3733;47.994;8.820;2022-12-20T05:41:35;40.97;;;20.60;;
7383;SDS011;3733;47.994;8.820;2022-12-20T05:44:02;36.30;;;18.97;;
7383;SDS011;3733;47.994;8.820;2022-12-20T05:46:28;40.20;;;20.33;;
7383;SDS011;3733;47.994;8.820;2022-12-20T05:48:53;41.53;;;20.37;;
7383;SDS011;3733;47.994;8.820;2022-12-20T05:51:19;41.77;;;22.90;;
7383;SDS011;3733;47.994;8.820;2022-12-20T05:53:45;50.03;;;22.00;;
7383;SDS011;3733;47.994;8.820;2022-12-20T05:56:10;37.83;;;21.43;;
7383;SDS011;3733;47.994;8.820;2022-12-20T05:58:36;42.67;;;22.87;;
7383;SDS011;3733;47.994;8.820;2022-12-20T06:01:02;46.77;;;23.03;;
7383;SDS011;3733;47.994;8.820;2022-12-20T06:03:30;48.90;;;22.60;;
7383;SDS011;3733;47.994;8.820;2022-12-20T06:05:55;49.53;;;24.80;;
7383;SDS011;3733;47.994;8.820;2022-12-20T06:08:22;49.60;;;24.00;;
7383;SDS011;3733;47.994;8.820;2022-12-20T06:10:48;47.93;;;24.50;;
7383;SDS011;3733;47.994;8.820;2022-12-20T06:13:14;41.03;;;23.23;;
7383;SDS011;3733;47.994;8.820;2022-12-20T06:15:40;49.13;;;24.10;;
7383;SDS011;3733;47.994;8.820;2022-12-20T06:18:06;49.63;;;22.23;;
7383;SDS011;3733;47.994;8.820;2022-12-20T06:20:33;44.43;;;22.43;;
7383;SDS011;3733;47.994;8.820;2022-12-20T06:22:59;50.10;;;24.60;;
7383;SDS011;3733;47.994;8.820;2022-12-20T06:25:26;47.30;;;24.17;;
7383;SDS011;3733;47.994;8.820;2022-12-20T06:27:52;46.37;;;23.73;;
7383;SDS011;3733;47.994;8.820;2022-12-20T06:30:18;46.47;;;22.57;;
7383;SDS011;3733;47.994;8.820;2022-12-20T06:32:44;54.93;;;24.40;;
7383;SDS011;3733;47.994;8.820;2022-12-20T06:35:10;44.30;;;23.07;;
7383;SDS011;3733;47.994;8.820;2022-12-20T06:37:36;46.67;;;22.60;;
7383;SDS011;3733;47.994;8.820;2022-12-20T06:40:04;53.70;;;23.60;;
7383;SDS011;3733;47.994;8.820;2022-12-20T06:42:31;46.53;;;24.00;;
7383;SDS011;3733;47.994;8.820;2022-12-20T06:44:57;45.80;;;22.63;;
7383;SDS011;3733;47.994;8.820;2022-12-20T06:47:23;46.50;;;22.73;;
7383;SDS011;3733;47.994;8.820;2022-12-20T06:49:48;49.13;;;22.80;;
7383;SDS011;3733;47.994;8.820;2022-12-20T06:52:14;44.93;;;22.27;;
7383;SDS011;3733;47.994;8.820;2022-12-20T06:54:39;43.10;;;21.50;;
7383;SDS011;3733;47.994;8.820;2022-12-20T06:57:05;48.97;;;23.00;;
7383;SDS011;3733;47.994;8.820;2022-12-20T06:59:31;44.07;;;21.23;;
7383;SDS011;3733;47.994;8.820;2022-12-20T07:01:56;41.47;;;19.90;;
7383;SDS011;3733;47.994;8.820;2022-12-20T07:04:22;39.17;;;20.27;;
7383;SDS011;3733;47.994;8.820;2022-12-20T07:06:48;34.60;;;19.83;;
7383;SDS011;3733;47.994;8.820;2022-12-20T07:09:13;35.13;;;20.50;;
7383;SDS011;3733;47.994;8.820;2022-12-20T07:11:40;45.37;;;21.63;;
7383;SDS011;3733;47.994;8.820;2022-12-20T07:14:07;42.37;;;21.37;;
7383;SDS011;3733;47.994;8.820;2022-12-20T07:16:32;45.77;;;23.83;;
7383;SDS011;3733;47.994;8.820;2022-12-20T07:18:59;43.50;;;23.37;;
7383;SDS011;3733;47.994;8.820;2022-12-20T07:21:25;51.50;;;23.60;;
7383;SDS011;3733;47.994;8.820;2022-12-20T07:23:51;47.13;;;22.67;;
7383;SDS011;3733;47.994;8.820;2022-12-20T07:26:19;45.50;;;22.93;;
7383;SDS011;3733;47.994;8.820;2022-12-20T07:28:44;43.07;;;22.70;;
7383;SDS011;3733;47.994;8.820;2022-12-20T07:31:10;40.90;;;23.27;;
7383;SDS011;3733;47.994;8.820;2022-12-20T07:33:36;43.13;;;23.37;;
7383;SDS011;3733;47.994;8.820;2022-12-20T07:36:06;40.80;;;22.40;;
7383;SDS011;3733;47.994;8.820;2022-12-20T07:38:34;47.20;;;23.27;;
7383;SDS011;3733;47.994;8.820;2022-12-20T07:41:05;44.67;;;22.43;;
7383;SDS011;3733;47.994;8.820;2022-12-20T07:43:38;43.43;;;23.30;;
7383;SDS011;3733;47.994;8.820;2022-12-20T07:46:04;39.00;;;22.20;;
7383;SDS011;3733;47.994;8.820;2022-12-20T07:48:31;43.60;;;23.53;;
7383;SDS011;3733;47.994;8.820;2022-12-20T07:50:58;45.80;;;23.20;;
7383;SDS011;3733;47.994;8.820;2022-12-20T07:53:31;44.00;;;21.90;;
7383;SDS011;3733;47.994;8.820;2022-12-20T07:55:58;47.60;;;22.23;;
7383;SDS011;3733;47.994;8.820;2022-12-20T07:58:26;45.13;;;23.13;;
7383;SDS011;3733;47.994;8.820;2022-12-20T08:00:52;49.10;;;22.87;;
7383;SDS011;3733;47.994;8.820;2022-12-20T08:03:29;52.83;;;25.87;;
7383;SDS011;3733;47.994;8.820;2022-12-20T08:05:59;48.80;;;25.07;;
7383;SDS011;3733;47.994;8.820;2022-12-20T08:08:29;47.10;;;23.87;;
7383;SDS011;3733;47.994;8.820;2022-12-20T08:10:56;43.00;;;24.73;;
7383;SDS011;3733;47.994;8.820;2022-12-20T08:13:23;52.70;;;25.27;;
7383;SDS011;3733;47.994;8.820;2022-12-20T08:15:49;52.07;;;28.00;;
7383;SDS011;3733;47.994;8.820;2022-12-20T08:18:15;47.97;;;24.17;;
7383;SDS011;3733;47.994;8.820;2022-12-20T08:20:40;48.70;;;24.53;;
7383;SDS011;3733;47.994;8.820;2022-12-20T08:23:06;42.73;;;22.60;;
7383;SDS011;3733;47.994;8.820;2022-12-20T08:25:33;42.60;;;21.33;;
7383;SDS011;3733;47.994;8.820;2022-12-20T08:27:58;43.80;;;20.33;;
7383;SDS011;3733;47.994;8.820;2022-12-20T08:30:26;43.63;;;21.37;;
7383;SDS011;3733;47.994;8.820;2022-12-20T08:32:52;39.80;;;20.70;;
7383;SDS011;3733;47.994;8.820;2022-12-20T08:35:18;48.80;;;22.83;;
7383;SDS011;3733;47.994;8.820;2022-12-20T08:37:44;49.00;;;25.27;;
7383;SDS011;3733;47.994;8.820;2022-12-20T08:40:09;55.27;;;26.63;;
7383;SDS011;3733;47.994;8.820;2022-12-20T08:42:35;52.90;;;26.00;;
7383;SDS011;3733;47.994;8.820;2022-12-20T08:45:01;52.90;;;27.27;;
7383;SDS011;3733;47.994;8.820;2022-12-20T08:47:28;52.10;;;25.10;;
7383;SDS011;3733;47.994;8.820;2022-12-20T08:49:54;48.83;;;26.33;;
7383;SDS011;3733;47.994;8.820;2022-12-20T08:52:19;50.83;;;25.00;;
7383;SDS011;3733;47.994;8.820;2022-12-20T08:54:45;53.40;;;27.93;;
7383;SDS011;3733;47.994;8.820;2022-12-20T08:57:11;62.43;;;28.27;;
7383;SDS011;3733;47.994;8.820;2022-12-20T08:59:37;52.80;;;29.23;;
7383;SDS011;3733;47.994;8.820;2022-12-20T09:02:03;48.40;;;25.53;;
7383;SDS011;3733;47.994;8.820;2022-12-20T09:04:29;55.60;;;29.17;;
7383;SDS011;3733;47.994;8.820;2022-12-20T09:06:54;67.33;;;29.00;;
7383;SDS011;3733;47.994;8.820;2022-12-20T09:09:20;50.50;;;27.03;;
7383;SDS011;3733;47.994;8.820;2022-12-20T09:11:46;56.77;;;25.30;;
7383;SDS011;3733;47.994;8.820;2022-12-20T09:14:11;45.03;;;24.47;;
7383;SDS011;3733;47.994;8.820;2022-12-20T09:16:37;45.60;;;24.00;;
7383;SDS011;3733;47.994;8.820;2022-12-20T09:19:03;45.70;;;23.20;;
7383;SDS011;3733;47.994;8.820;2022-12-20T09:21:30;42.70;;;21.87;;
7383;SDS011;3733;47.994;8.820;2022-12-20T09:23:56;36.00;;;22.53;;
7383;SDS011;3733;47.994;8.820;2022-12-20T09:26:22;36.67;;;20.27;;
7383;SDS011;3733;47.994;8.820;2022-12-20T09:28:48;40.50;;;19.67;;
7383;SDS011;3733;47.994;8.820;2022-12-20T09:31:15;35.37;;;18.60;;
7383;SDS011;3733;47.994;8.820;2022-12-20T09:33:42;37.53;;;20.70;;
7383;SDS011;3733;47.994;8.820;2022-12-20T09:36:12;40.77;;;20.40;;
7383;SDS011;3733;47.994;8.820;2022-12-20T09:38:39;55.77;;;21.30;;
7383;SDS011;3733;47.994;8.820;2022-12-20T09:41:06;39.53;;;21.50;;
7383;SDS011;3733;47.994;8.820;2022-12-20T09:43:39;34.83;;;19.17;;
7383;SDS011;3733;47.994;8.820;2022-12-20T09:46:06;34.90;;;19.47;;
7383;SDS011;3733;47.994;8.820;2022-12-20T09:48:37;45.47;;;22.00;;
7383;SDS011;3733;47.994;8.820;2022-12-20T09:54:10;39.70;;;20.90;;
7383;SDS011;3733;47.994;8.820;2022-12-20T09:56:44;37.77;;;20.80;;
7383;SDS011;3733;47.994;8.820;2022-12-20T09:59:18;46.73;;;19.90;;
7383;SDS011;3733;47.994;8.820;2022-12-20T10:01:45;37.57;;;19.73;;
7383;SDS011;3733;47.994;8.820;2022-12-20T10:04:19;36.00;;;19.90;;
7383;SDS011;3733;47.994;8.820;2022-12-20T10:09:38;33.80;;;19.87;;
7383;SDS011;3733;47.994;8.820;2022-12-20T10:17:49;36.63;;;19.87;;
7383;SDS011;3733;47.994;8.820;2022-12-20T10:20:34;35.27;;;20.60;;
7383;SDS011;3733;47.994;8.820;2022-12-20T10:23:10;38.07;;;18.60;;
7383;SDS011;3733;47.994;8.820;2022-12-20T10:25:54;34.03;;;18.30;;
7383;SDS011;3733;47.994;8.820;2022-12-20T10:28:28;38.87;;;20.30;;
7383;SDS011;3733;47.994;8.820;2022-12-20T10:30:59;35.53;;;19.57;;
7383;SDS011;3733;47.994;8.820;2022-12-20T10:33:26;38.00;;;18.60;;
7383;SDS011;3733;47.994;8.820;2022-12-20T10:35:52;40.27;;;21.87;;
7383;SDS011;3733;47.994;8.820;2022-12-20T10:38:19;45.40;;;23.00;;
7383;SDS011;3733;47.994;8.820;2022-12-20T10:43:27;36.73;;;20.93;;
7383;SDS011;3733;47.994;8.820;2022-12-20T10:46:09;37.97;;;22.40;;
7383;SDS011;3733;47.994;8.820;2022-12-20T10:48:39;42.43;;;23.30;;
7383;SDS011;3733;47.994;8.820;2022-12-20T10:53:33;41.40;;;23.63;;
7383;SDS011;3733;47.994;8.820;2022-12-20T10:58:55;42.57;;;23.17;;
7383;SDS011;3733;47.994;8.820;2022-12-20T11:01:41;57.17;;;28.93;;
7383;SDS011;3733;47.994;8.820;2022-12-20T11:06:52;60.53;;;30.77;;
7383;SDS011;3733;47.994;8.820;2022-12-20T11:11:56;51.17;;;29.83;;
7383;SDS011;3733;47.994;8.820;2022-12-20T11:14:23;57.23;;;30.30;;
7383;SDS011;3733;47.994;8.820;2022-12-20T11:16:49;52.37;;;29.87;;
7383;SDS011;3733;47.994;8.820;2022-12-20T11:27:54;47.50;;;25.60;;
7383;SDS011;3733;47.994;8.820;2022-12-20T11:36:05;36.37;;;19.43;;
7383;SDS011;3733;47.994;8.820;2022-12-20T11:38:58;37.87;;;20.63;;
7383;SDS011;3733;47.994;8.820;2022-12-20T11:42:03;42.40;;;24.80;;
7383;SDS011;3733;47.994;8.820;2022-12-20T11:57:45;33.27;;;19.87;;
7383;SDS011;3733;47.994;8.820;2022-12-20T12:00:22;33.80;;;19.60;;
7383;SDS011;3733;47.994;8.820;2022-12-20T12:02:53;40.97;;;19.90;;
7383;SDS011;3733;47.994;8.820;2022-12-20T12:07:57;33.40;;;19.83;;
7383;SDS011;3733;47.994;8.820;2022-12-20T12:10:31;32.33;;;19.50;;
7383;SDS011;3733;47.994;8.820;2022-12-20T12:15:50;35.93;;;20.27;;
7383;SDS011;3733;47.994;8.820;2022-12-20T12:18:32;41.30;;;22.03;;
7383;SDS011;3733;47.994;8.820;2022-12-20T12:21:11;41.83;;;23.23;;
7383;SDS011;3733;47.994;8.820;2022-12-20T12:26:35;37.50;;;21.70;;
7383;SDS011;3733;47.994;8.820;2022-12-20T12:29:03;36.83;;;21.43;;
7383;SDS011;3733;47.994;8.820;2022-12-20T12:31:56;36.67;;;20.80;;
7383;SDS011;3733;47.994;8.820;2022-12-20T12:50:55;40.40;;;24.20;;
7383;SDS011;3733;47.994;8.820;2022-12-20T12:55:56;42.00;;;23.70;;
7383;SDS011;3733;47.994;8.820;2022-12-20T13:03:34;41.50;;;23.40;;
7383;SDS011;3733;47.994;8.820;2022-12-20T13:11:44;33.23;;;19.53;;
7383;SDS011;3733;47.994;8.820;2022-12-20T13:16:45;31.47;;;19.17;;
7383;SDS011;3733;47.994;8.820;2022-12-20T13:19:15;36.27;;;20.50;;
7383;SDS011;3733;47.994;8.820;2022-12-20T13:21:50;37.83;;;21.10;;
7383;SDS011;3733;47.994;8.820;2022-12-20T13:24:59;37.57;;;22.17;;
7383;SDS011;3733;47.994;8.820;2022-12-20T13:37:54;33.10;;;20.20;;
7383;SDS011;3733;47.994;8.820;2022-12-20T13:45:46;39.53;;;24.27;;
7383;SDS011;3733;47.994;8.820;2022-12-20T13:48:14;47.07;;;26.23;;
7383;SDS011;3733;47.994;8.820;2022-12-20T13:50:50;46.63;;;27.50;;
7383;SDS011;3733;47.994;8.820;2022-12-20T13:53:24;46.40;;;25.33;;
7383;SDS011;3733;47.994;8.820;2022-12-20T13:55:51;42.73;;;25.63;;
7383;SDS011;3733;47.994;8.820;2022-12-20T13:58:21;46.90;;;27.50;;
7383;SDS011;3733;47.994;8.820;2022-12-20T14:01:05;34.83;;;19.93;;
7383;SDS011;3733;47.994;8.820;2022-12-20T14:03:39;32.47;;;19.70;;
7383;SDS011;3733;47.994;8.820;2022-12-20T14:06:08;31.20;;;18.90;;
7383;SDS011;3733;47.994;8.820;2022-12-20T14:08:37;31.43;;;18.77;;
7383;SDS011;3733;47.994;8.820;2022-12-20T14:11:24;36.03;;;19.27;;
7383;SDS011;3733;47.994;8.820;2022-12-20T14:16:24;27.57;;;17.57;;
7383;SDS011;3733;47.994;8.820;2022-12-20T14:19:04;29.90;;;16.80;;
7383;SDS011;3733;47.994;8.820;2022-12-20T14:21:33;30.20;;;15.80;;
7383;SDS011;3733;47.994;8.820;2022-12-20T14:24:01;27.70;;;17.47;;
7383;SDS011;3733;47.994;8.820;2022-12-20T14:26:28;32.37;;;16.70;;
7383;SDS011;3733;47.994;8.820;2022-12-20T14:28:58;24.97;;;16.20;;
7383;SDS011;3733;47.994;8.820;2022-12-20T14:34:03;27.70;;;17.70;;
7383;SDS011;3733;47.994;8.820;2022-12-20T14:36:39;32.60;;;18.57;;
7383;SDS011;3733;47.994;8.820;2022-12-20T14:44:27;24.70;;;15.30;;
7383;SDS011;3733;47.994;8.820;2022-12-20T14:47:01;27.30;;;15.23;;
7383;SDS011;3733;47.994;8.820;2022-12-20T14:49:37;28.67;;;16.50;;
7383;SDS011;3733;47.994;8.820;2022-12-20T14:57:37;26.00;;;15.20;;
7383;SDS011;3733;47.994;8.820;2022-12-20T15:08:40;29.90;;;17.50;;
7383;SDS011;3733;47.994;8.820;2022-12-20T15:13:26;34.07;;;19.40;;
7383;SDS011;3733;47.994;8.820;2022-12-20T15:16:04;36.40;;;20.90;;
7383;SDS011;3733;47.994;8.820;2022-12-20T15:18:30;34.80;;;19.07;;
7383;SDS011;3733;47.994;8.820;2022-12-20T15:21:00;32.23;;;20.07;;
7383;SDS011;3733;47.994;8.820;2022-12-20T15:23:48;38.93;;;22.60;;
7383;SDS011;3733;47.994;8.820;2022-12-20T15:26:16;37.13;;;21.33;;
7383;SDS011;3733;47.994;8.820;2022-12-20T15:28:44;38.30;;;20.57;;
7383;SDS011;3733;47.994;8.820;2022-12-20T15:31:13;35.60;;;21.50;;
7383;SDS011;3733;47.994;8.820;2022-12-20T15:33:41;36.07;;;19.97;;
7383;SDS011;3733;47.994;8.820;2022-12-20T15:36:21;35.00;;;20.50;;
7383;SDS011;3733;47.994;8.820;2022-12-20T15:38:50;38.37;;;21.60;;
7383;SDS011;3733;47.994;8.820;2022-12-20T15:41:27;38.07;;;21.07;;
7383;SDS011;3733;47.994;8.820;2022-12-20T15:43:58;43.50;;;22.33;;
7383;SDS011;3733;47.994;8.820;2022-12-20T15:46:27;47.27;;;24.60;;
7383;SDS011;3733;47.994;8.820;2022-12-20T15:48:53;41.20;;;21.50;;
7383;SDS011;3733;47.994;8.820;2022-12-20T15:53:50;39.67;;;23.30;;
7383;SDS011;3733;47.994;8.820;2022-12-20T15:56:18;45.40;;;24.57;;
7383;SDS011;3733;47.994;8.820;2022-12-20T15:58:45;64.03;;;26.67;;
7383;SDS011;3733;47.994;8.820;2022-12-20T16:01:12;151.50;;;45.83;;
7383;SDS011;3733;47.994;8.820;2022-12-20T16:03:45;116.37;;;36.70;;
7383;SDS011;3733;47.994;8.820;2022-12-20T16:06:10;80.47;;;32.97;;
7383;SDS011;3733;47.994;8.820;2022-12-20T16:08:39;51.40;;;24.33;;
7383;SDS011;3733;47.994;8.820;2022-12-20T16:11:06;37.63;;;20.87;;
7383;SDS011;3733;47.994;8.820;2022-12-20T16:13:41;40.30;;;20.43;;
7383;SDS011;3733;47.994;8.820;2022-12-20T16:16:11;33.40;;;19.30;;
7383;SDS011;3733;47.994;8.820;2022-12-20T16:18:44;40.23;;;21.20;;
7383;SDS011;3733;47.994;8.820;2022-12-20T16:21:14;44.33;;;22.67;;
7383;SDS011;3733;47.994;8.820;2022-12-20T16:23:41;31.07;;;19.23;;
7383;SDS011;3733;47.994;8.820;2022-12-20T16:26:11;32.87;;;18.20;;
7383;SDS011;3733;47.994;8.820;2022-12-20T16:28:40;28.63;;;15.90;;
7383;SDS011;3733;47.994;8.820;2022-12-20T16:33:57;26.57;;;15.73;;
7383;SDS011;3733;47.994;8.820;2022-12-20T16:36:24;27.63;;;14.67;;
7383;SDS011;3733;47.994;8.820;2022-12-20T16:38:50;26.63;;;15.40;;
7383;SDS011;3733;47.994;8.820;2022-12-20T16:41:17;26.00;;;14.70;;
7383;SDS011;3733;47.994;8.820;2022-12-20T16:43:54;28.30;;;15.17;;
7383;SDS011;3733;47.994;8.820;2022-12-20T16:46:21;32.47;;;17.17;;
7383;SDS011;3733;47.994;8.820;2022-12-20T16:48:50;24.30;;;15.47;;
7383;SDS011;3733;47.994;8.820;2022-12-20T16:51:24;36.57;;;17.17;;
7383;SDS011;3733;47.994;8.820;2022-12-20T16:53:52;31.10;;;16.17;;
7383;SDS011;3733;47.994;8.820;2022-12-20T16:56:29;32.00;;;16.73;;
7383;SDS011;3733;47.994;8.820;2022-12-20T16:58:56;37.27;;;18.40;;
7383;SDS011;3733;47.994;8.820;2022-12-20T17:01:23;44.73;;;17.90;;
7383;SDS011;3733;47.994;8.820;2022-12-20T17:03:54;26.67;;;15.93;;
7383;SDS011;3733;47.994;8.820;2022-12-20T17:06:20;27.73;;;16.97;;
7383;SDS011;3733;47.994;8.820;2022-12-20T17:08:46;39.37;;;18.13;;
7383;SDS011;3733;47.994;8.820;2022-12-20T17:11:13;28.63;;;16.70;;
7383;SDS011;3733;47.994;8.820;2022-12-20T17:13:45;34.87;;;18.97;;
7383;SDS011;3733;47.994;8.820;2022-12-20T17:16:13;32.50;;;18.60;;
7383;SDS011;3733;47.994;8.820;2022-12-20T17:18:43;36.37;;;19.77;;
7383;SDS011;3733;47.994;8.820;2022-12-20T17:24:03;31.33;;;18.10;;
7383;SDS011;3733;47.994;8.820;2022-12-20T17:26:30;29.13;;;17.47;;
7383;SDS011;3733;47.994;8.820;2022-12-20T17:28:57;32.97;;;17.57;;
7383;SDS011;3733;47.994;8.820;2022-12-20T17:31:32;27.63;;;16.93;;
7383;SDS011;3733;47.994;8.820;2022-12-20T17:34:03;26.70;;;16.47;;
7383;SDS011;3733;47.994;8.820;2022-12-20T17:36:49;28.10;;;16.70;;
7383;SDS011;3733;47.994;8.820;2022-12-20T17:39:17;33.10;;;18.27;;
7383;SDS011;3733;47.994;8.820;2022-12-20T17:41:43;33.83;;;17.00;;
7383;SDS011;3733;47.994;8.820;2022-12-20T17:44:22;31.90;;;16.97;;